createdAt,value
2022-08-20T00:02:15.621Z,11.30
2022-08-20T00:04:44.736Z,11.90
2022-08-20T00:07:14.595Z,12.20
2022-08-20T00:09:43.749Z,12.50
2022-08-20T00:12:16.750Z,11.10
2022-08-20T00:14:44.958Z,11.30
2022-08-20T00:17:13.362Z,11.70
2022-08-20T00:19:41.796Z,10.80
2022-08-20T00:22:10.288Z,11.10
2022-08-20T00:24:38.769Z,11.30
2022-08-20T00:27:07.240Z,11.00
2022-08-20T00:29:35.781Z,11.40
2022-08-20T00:32:04.595Z,10.80
2022-08-20T00:34:33.008Z,10.80
2022-08-20T00:37:01.509Z,11.20
2022-08-20T00:39:29.911Z,10.10
2022-08-20T00:41:58.295Z,11.30
2022-08-20T00:44:27.383Z,11.80
2022-08-20T00:46:55.881Z,12.20
2022-08-20T00:49:32.638Z,12.00
2022-08-20T00:52:08.216Z,12.20
2022-08-20T00:54:44.560Z,11.20
2022-08-20T00:57:51.230Z,11.80
2022-08-20T01:00:46.480Z,11.70
2022-08-20T01:03:17.837Z,11.60
2022-08-20T01:05:51.906Z,12.30
2022-08-20T01:08:24.343Z,11.30
2022-08-20T01:11:07.648Z,11.30
2022-08-20T01:13:38.917Z,11.10
2022-08-20T01:16:18.347Z,11.40
2022-08-20T01:18:48.808Z,11.70
2022-08-20T01:21:28.602Z,11.60
2022-08-20T01:24:21.272Z,11.30
2022-08-20T01:26:50.829Z,11.90
2022-08-20T01:29:29.607Z,11.90
2022-08-20T01:32:01.636Z,12.20
2022-08-20T01:34:30.481Z,14.20
2022-08-20T01:36:59.576Z,11.50
2022-08-20T01:39:33.017Z,12.10
2022-08-20T01:42:04.315Z,12.50
2022-08-20T01:44:33.797Z,12.50
2022-08-20T01:47:31.461Z,11.70
2022-08-20T01:50:18.105Z,12.30
2022-08-20T01:52:59.487Z,12.50
2022-08-20T01:55:28.347Z,12.70
2022-08-20T01:57:58.162Z,12.40
2022-08-20T02:00:26.786Z,12.80
2022-08-20T02:02:55.265Z,12.40
2022-08-20T02:05:24.786Z,13.00
2022-08-20T02:07:59.032Z,12.50
2022-08-20T02:10:28.252Z,13.00
2022-08-20T02:13:01.916Z,13.50
2022-08-20T02:15:34.430Z,13.10
2022-08-20T02:18:08.971Z,13.60
2022-08-20T02:20:38.171Z,14.00
2022-08-20T02:23:08.173Z,14.90
2022-08-20T02:25:40.447Z,13.70
2022-08-20T02:28:12.286Z,14.20
2022-08-20T02:30:44.815Z,13.10
2022-08-20T02:33:16.300Z,13.90
2022-08-20T02:35:48.167Z,13.50
2022-08-20T02:38:17.189Z,14.50
2022-08-20T02:40:46.972Z,13.30
2022-08-20T02:43:18.128Z,14.30
2022-08-20T02:45:46.647Z,14.40
2022-08-20T02:48:23.628Z,14.70
2022-08-20T02:50:56.897Z,14.50
2022-08-20T02:53:26.428Z,15.50
2022-08-20T02:55:56.217Z,16.00
2022-08-20T02:58:24.861Z,15.00
2022-08-20T03:00:53.998Z,14.40
2022-08-20T03:03:24.571Z,14.80
2022-08-20T03:05:55.876Z,15.40
2022-08-20T03:08:25.825Z,15.30
2022-08-20T03:10:54.884Z,14.90
2022-08-20T03:13:24.803Z,14.20
2022-08-20T03:15:59.034Z,14.80
2022-08-20T03:18:32.326Z,14.10
2022-08-20T03:21:01.363Z,15.10
2022-08-20T03:23:29.840Z,14.20
2022-08-20T03:25:58.795Z,16.20
2022-08-20T03:28:28.311Z,14.90
2022-08-20T03:30:58.150Z,14.50
2022-08-20T03:33:28.087Z,14.20
2022-08-20T03:35:56.574Z,13.90
2022-08-20T03:38:32.237Z,14.90
2022-08-20T03:41:03.478Z,15.50
2022-08-20T03:43:32.729Z,14.80
2022-08-20T03:46:02.473Z,14.70
2022-08-20T03:48:31.025Z,14.20
2022-08-20T03:51:01.149Z,14.80
2022-08-20T03:53:33.023Z,14.10
2022-08-20T03:56:06.084Z,15.20
2022-08-20T03:58:36.337Z,14.10
2022-08-20T04:01:07.308Z,14.20
2022-08-20T04:03:37.508Z,14.90
2022-08-20T04:06:06.156Z,15.10
2022-08-20T04:08:35.148Z,14.10
2022-08-20T04:11:03.686Z,14.60
2022-08-20T04:13:32.281Z,14.90
2022-08-20T04:16:13.358Z,13.90
2022-08-20T04:19:01.634Z,14.10
2022-08-20T04:21:33.312Z,15.30
2022-08-20T04:24:04.708Z,14.70
2022-08-20T04:26:35.597Z,15.90
2022-08-20T04:29:04.755Z,15.80
2022-08-20T04:31:34.089Z,14.80
2022-08-20T04:34:04.647Z,15.50
2022-08-20T04:36:33.135Z,14.90
2022-08-20T04:39:01.696Z,13.90
2022-08-20T04:41:30.133Z,14.50
2022-08-20T04:43:58.629Z,14.20
2022-08-20T04:46:29.132Z,13.40
2022-08-20T04:48:58.147Z,15.10
2022-08-20T04:51:27.189Z,14.40
2022-08-20T04:53:57.494Z,14.10
2022-08-20T04:56:29.488Z,14.70
2022-08-20T04:59:01.012Z,14.50
2022-08-20T05:01:29.592Z,14.80
2022-08-20T05:03:58.707Z,15.00
2022-08-20T05:06:31.478Z,14.10
2022-08-20T05:09:01.071Z,14.70
2022-08-20T05:11:36.099Z,13.40
2022-08-20T05:14:09.381Z,14.30
2022-08-20T05:16:39.605Z,14.20
2022-08-20T05:19:11.618Z,14.40
2022-08-20T05:21:40.648Z,14.40
2022-08-20T05:24:10.665Z,14.50
2022-08-20T05:26:39.280Z,15.00
2022-08-20T05:29:07.749Z,14.30
2022-08-20T05:31:36.284Z,16.10
2022-08-20T05:34:10.421Z,16.50
2022-08-20T05:36:41.827Z,15.30
2022-08-20T05:39:11.231Z,15.10
2022-08-20T05:41:40.456Z,14.30
2022-08-20T05:44:13.515Z,14.80
2022-08-20T05:46:45.067Z,12.80
2022-08-20T05:49:16.795Z,15.10
2022-08-20T05:51:45.312Z,15.60
2022-08-20T05:54:14.471Z,14.30
2022-08-20T05:56:43.324Z,14.70
2022-08-20T05:59:14.352Z,14.60
2022-08-20T06:01:43.420Z,14.10
2022-08-20T06:04:28.768Z,14.00
2022-08-20T06:07:02.477Z,14.10
2022-08-20T06:09:32.894Z,14.20
2022-08-20T06:12:06.278Z,14.00
2022-08-20T06:14:34.998Z,13.20
2022-08-20T06:17:13.517Z,14.00
2022-08-20T06:19:44.510Z,14.70
2022-08-20T06:22:18.717Z,13.00
2022-08-20T06:24:53.649Z,12.60
2022-08-20T06:27:22.660Z,13.10
2022-08-20T06:29:51.650Z,12.60
2022-08-20T06:32:31.802Z,12.50
2022-08-20T06:35:03.658Z,11.70
2022-08-20T06:37:36.654Z,13.30
2022-08-20T06:40:16.508Z,14.00
2022-08-20T06:42:48.468Z,13.30
2022-08-20T06:45:21.140Z,13.90
2022-08-20T06:47:49.668Z,13.50
2022-08-20T06:50:22.585Z,12.20
2022-08-20T06:52:52.898Z,13.10
2022-08-20T06:55:22.477Z,12.40
2022-08-20T06:58:02.458Z,13.60
2022-08-20T07:00:33.552Z,13.60
2022-08-20T07:03:02.852Z,12.90
2022-08-20T07:05:34.669Z,14.20
2022-08-20T07:08:04.484Z,13.60
2022-08-20T07:10:32.877Z,12.60
2022-08-20T07:13:01.416Z,13.20
2022-08-20T07:15:30.740Z,13.40
2022-08-20T07:18:02.019Z,12.30
2022-08-20T07:20:32.110Z,13.70
2022-08-20T07:23:01.333Z,13.60
2022-08-20T07:25:31.969Z,12.60
2022-08-20T07:28:05.566Z,12.20
2022-08-20T07:30:56.033Z,11.90
2022-08-20T07:33:28.752Z,11.40
2022-08-20T07:36:00.139Z,11.80
2022-08-20T07:38:30.831Z,10.90
2022-08-20T07:41:07.513Z,11.80
2022-08-20T07:43:36.637Z,11.60
2022-08-20T07:46:08.587Z,11.00
2022-08-20T07:48:40.187Z,10.00
2022-08-20T07:51:11.235Z,10.60
2022-08-20T07:53:41.207Z,11.10
2022-08-20T07:56:12.955Z,10.50
2022-08-20T07:58:50.454Z,10.60
2022-08-20T08:01:22.366Z,10.00
2022-08-20T08:03:50.950Z,11.30
2022-08-20T08:06:29.330Z,10.70
2022-08-20T08:09:04.648Z,13.10
2022-08-20T08:11:38.025Z,11.00
2022-08-20T08:14:10.121Z,19.80
2022-08-20T08:16:39.372Z,10.90
2022-08-20T08:19:12.208Z,12.40
2022-08-20T08:21:41.645Z,11.60
2022-08-20T08:24:14.368Z,10.80
2022-08-20T08:26:45.183Z,11.40
2022-08-20T08:29:13.690Z,14.40
2022-08-20T08:31:42.476Z,10.00
2022-08-20T08:34:11.863Z,10.70
2022-08-20T08:36:40.686Z,10.50
2022-08-20T08:39:09.119Z,11.00
2022-08-20T08:41:48.230Z,10.00
2022-08-20T08:44:23.618Z,9.60
2022-08-20T08:47:00.801Z,10.00
2022-08-20T08:49:38.069Z,10.40
2022-08-20T08:52:19.941Z,11.30
2022-08-20T08:54:53.379Z,9.90
2022-08-20T08:57:21.881Z,10.60
2022-08-20T09:00:03.924Z,9.70
2022-08-20T09:02:38.999Z,11.10
2022-08-20T09:05:21.286Z,9.90
2022-08-20T09:07:53.139Z,10.60
2022-08-20T09:10:23.559Z,11.40
2022-08-20T09:12:52.557Z,8.80
2022-08-20T09:15:21.556Z,8.90
2022-08-20T09:17:51.038Z,8.90
2022-08-20T09:20:19.657Z,9.60
2022-08-20T09:22:50.284Z,9.30
2022-08-20T09:25:21.143Z,8.40
2022-08-20T09:27:49.590Z,9.70
2022-08-20T09:30:19.565Z,10.40
2022-08-20T09:32:48.812Z,10.40
2022-08-20T09:35:18.205Z,9.40
2022-08-20T09:37:47.167Z,9.30
2022-08-20T09:40:21.066Z,9.70
2022-08-20T09:42:51.091Z,8.90
2022-08-20T09:45:19.882Z,8.20
2022-08-20T09:47:54.854Z,8.60
2022-08-20T09:50:27.828Z,10.40
2022-08-20T09:52:59.562Z,8.70
2022-08-20T09:55:38.464Z,8.60
2022-08-20T09:58:35.337Z,7.90
2022-08-20T10:01:13.727Z,9.00
2022-08-20T10:03:44.736Z,8.40
2022-08-20T10:06:14.943Z,8.70
2022-08-20T10:08:44.143Z,8.00
2022-08-20T10:11:12.660Z,8.30
2022-08-20T10:13:41.343Z,8.50
2022-08-20T10:16:09.777Z,8.00
2022-08-20T10:18:38.414Z,8.90
2022-08-20T10:21:13.218Z,8.00
2022-08-20T10:23:42.157Z,8.20
2022-08-20T10:26:12.608Z,7.80
2022-08-20T10:28:41.163Z,8.90
2022-08-20T10:31:12.398Z,8.70
2022-08-20T10:33:41.741Z,8.80
2022-08-20T10:36:13.364Z,8.30
2022-08-20T10:38:43.237Z,9.00
2022-08-20T10:41:11.930Z,8.50
2022-08-20T10:43:40.500Z,8.40
2022-08-20T10:46:09.332Z,8.50
2022-08-20T10:48:38.488Z,7.40
2022-08-20T10:51:07.034Z,7.60
2022-08-20T10:53:36.224Z,7.80
2022-08-20T10:56:04.769Z,7.70
2022-08-20T10:58:39.328Z,6.80
2022-08-20T11:01:09.040Z,7.20
2022-08-20T11:03:37.523Z,8.20
2022-08-20T11:06:06.239Z,7.80
2022-08-20T11:08:36.055Z,7.60
2022-08-20T11:11:06.168Z,7.70
2022-08-20T11:13:35.782Z,7.80
2022-08-20T11:16:05.168Z,7.20
2022-08-20T11:18:33.724Z,7.20
2022-08-20T11:21:02.329Z,7.50
2022-08-20T11:23:30.752Z,7.30
2022-08-20T11:25:59.552Z,7.40
2022-08-20T11:28:31.877Z,6.40
2022-08-20T11:31:01.976Z,6.20
2022-08-20T11:33:31.048Z,6.80
2022-08-20T11:35:59.408Z,6.80
2022-08-20T11:38:27.804Z,6.90
2022-08-20T11:40:56.434Z,6.40
2022-08-20T11:43:24.889Z,5.80
2022-08-20T11:45:56.429Z,6.20
2022-08-20T11:48:24.944Z,6.20
2022-08-20T11:50:53.504Z,6.70
2022-08-20T11:53:22.363Z,7.20
2022-08-20T11:55:51.139Z,6.80
2022-08-20T11:58:19.600Z,6.30
2022-08-20T12:00:48.220Z,5.90
2022-08-20T12:03:16.865Z,6.40
2022-08-20T12:05:47.138Z,5.70
2022-08-20T12:08:25.261Z,5.30
2022-08-20T12:11:00.457Z,4.90
2022-08-20T12:13:48.373Z,5.40
2022-08-20T12:16:19.432Z,5.50
2022-08-20T12:18:48.825Z,5.70
2022-08-20T12:21:17.828Z,4.90
2022-08-20T12:23:46.326Z,5.30
2022-08-20T12:26:16.869Z,5.30
2022-08-20T12:28:45.415Z,5.20
2022-08-20T12:31:13.874Z,5.30
2022-08-20T12:33:42.349Z,5.80
2022-08-20T12:36:11.298Z,5.00
2022-08-20T12:38:39.724Z,5.60
2022-08-20T12:41:08.538Z,5.00
2022-08-20T12:43:37.092Z,5.20
2022-08-20T12:46:05.636Z,5.70
2022-08-20T12:48:34.041Z,6.60
2022-08-20T12:51:02.530Z,6.10
2022-08-20T12:53:30.949Z,5.60
2022-08-20T12:56:00.070Z,6.10
2022-08-20T12:58:28.585Z,5.60
2022-08-20T13:00:56.969Z,5.70
2022-08-20T13:03:25.387Z,5.40
2022-08-20T13:05:55.327Z,7.00
2022-08-20T13:08:23.889Z,6.50
2022-08-20T13:10:52.319Z,6.10
2022-08-20T13:13:21.246Z,7.10
2022-08-20T13:15:51.315Z,7.40
2022-08-20T13:18:20.667Z,7.40
2022-08-20T13:20:50.022Z,7.20
2022-08-20T13:23:18.474Z,6.70
2022-08-20T13:25:46.876Z,6.00
2022-08-20T13:28:15.419Z,6.50
2022-08-20T13:30:43.884Z,8.10
2022-08-20T13:33:12.299Z,7.30
2022-08-20T13:35:41.021Z,6.50
2022-08-20T13:38:09.412Z,7.40
2022-08-20T13:40:37.880Z,6.80
2022-08-20T13:43:07.550Z,7.00
2022-08-20T13:45:41.305Z,7.80
2022-08-20T13:48:14.984Z,6.70
2022-08-20T13:50:47.366Z,6.90
2022-08-20T13:53:16.709Z,7.50
2022-08-20T13:55:46.849Z,6.70
2022-08-20T13:58:15.421Z,7.20
2022-08-20T14:00:48.444Z,6.00
2022-08-20T14:03:20.000Z,7.60
2022-08-20T14:05:54.416Z,9.40
2022-08-20T14:08:24.501Z,9.30
2022-08-20T14:10:53.027Z,9.10
2022-08-20T14:13:25.120Z,8.20
2022-08-20T14:15:54.517Z,8.70
2022-08-20T14:18:23.345Z,9.20
2022-08-20T14:20:51.819Z,8.30
2022-08-20T14:23:20.400Z,7.60
2022-08-20T14:25:50.345Z,8.10
2022-08-20T14:28:22.433Z,7.60
2022-08-20T14:30:53.025Z,6.70
2022-08-20T14:33:24.342Z,6.10
2022-08-20T14:35:53.412Z,5.70
2022-08-20T14:38:22.541Z,5.20
2022-08-20T14:40:54.284Z,5.00
2022-08-20T14:43:22.991Z,5.20
2022-08-20T14:45:53.752Z,6.00
2022-08-20T14:48:25.636Z,5.40
2022-08-20T14:50:57.275Z,4.00
2022-08-20T14:53:26.264Z,4.10
2022-08-20T14:55:54.849Z,3.70
2022-08-20T14:58:23.352Z,3.90
2022-08-20T15:00:53.612Z,3.60
2022-08-20T15:03:24.182Z,4.20
2022-08-20T15:05:52.586Z,4.40
2022-08-20T15:08:23.216Z,4.20
2022-08-20T15:10:58.431Z,4.50
2022-08-20T15:13:26.926Z,4.80
2022-08-20T15:15:55.617Z,4.20
2022-08-20T15:18:25.425Z,4.20
2022-08-20T15:20:53.969Z,3.60
2022-08-20T15:23:23.168Z,3.60
2022-08-20T15:25:51.693Z,3.90
2022-08-20T15:28:20.238Z,3.70
2022-08-20T15:30:48.683Z,3.80
2022-08-20T15:33:17.159Z,3.80
2022-08-20T15:35:45.729Z,3.30
2022-08-20T15:38:14.196Z,4.40
2022-08-20T15:40:42.687Z,4.00
2022-08-20T15:43:11.235Z,4.10
2022-08-20T15:45:39.671Z,4.30
2022-08-20T15:48:18.836Z,4.20
2022-08-20T15:51:25.984Z,4.00
2022-08-20T15:54:18.510Z,4.10
2022-08-20T15:57:05.551Z,4.20
2022-08-20T15:59:33.940Z,4.30
2022-08-20T16:02:26.002Z,4.20
2022-08-20T16:05:19.165Z,4.80
2022-08-20T16:08:15.600Z,4.80
2022-08-20T16:10:43.953Z,4.50
2022-08-20T16:13:47.808Z,5.10
2022-08-20T16:16:33.305Z,5.20
2022-08-20T16:19:02.376Z,5.00
2022-08-20T16:21:37.681Z,4.80
2022-08-20T16:24:13.794Z,5.10
2022-08-20T16:26:48.527Z,5.00
2022-08-20T16:29:24.496Z,5.70
2022-08-20T16:32:02.204Z,5.10
2022-08-20T16:34:40.675Z,5.50
2022-08-20T16:37:38.362Z,6.30
2022-08-20T16:40:10.013Z,5.50
2022-08-20T16:42:44.492Z,6.10
2022-08-20T16:45:20.595Z,6.30
2022-08-20T16:47:51.179Z,5.90
2022-08-20T16:50:26.975Z,5.50
2022-08-20T16:52:55.675Z,6.70
2022-08-20T16:55:25.433Z,6.20
2022-08-20T16:57:54.889Z,6.50
2022-08-20T17:00:44.844Z,5.80
2022-08-20T17:03:31.524Z,5.70
2022-08-20T17:06:30.819Z,5.50
2022-08-20T17:09:02.529Z,6.30
2022-08-20T17:12:14.090Z,6.20
2022-08-20T17:14:52.861Z,5.70
2022-08-20T17:17:28.184Z,5.80
2022-08-20T17:20:20.020Z,6.20
2022-08-20T17:22:53.894Z,6.30
2022-08-20T17:25:38.356Z,6.30
2022-08-20T17:28:19.795Z,6.20
2022-08-20T17:30:49.970Z,7.00
2022-08-20T17:33:36.664Z,6.60
2022-08-20T17:36:17.290Z,7.30
2022-08-20T17:39:00.901Z,7.80
2022-08-20T17:41:29.327Z,8.50
2022-08-20T17:44:06.942Z,6.80
2022-08-20T17:46:45.771Z,7.00
2022-08-20T17:49:34.828Z,6.80
2022-08-20T17:52:11.652Z,6.30
2022-08-20T17:54:44.601Z,5.90
2022-08-20T17:57:15.531Z,5.90
2022-08-20T18:00:00.896Z,7.10
2022-08-20T18:02:34.919Z,5.90
2022-08-20T18:05:10.307Z,5.60
2022-08-20T18:07:42.299Z,6.50
2022-08-20T18:10:18.568Z,6.20
2022-08-20T18:13:11.605Z,6.80
2022-08-20T18:15:58.419Z,7.10
2022-08-20T18:18:56.859Z,6.20
2022-08-20T18:21:44.765Z,6.60
2022-08-20T18:24:20.853Z,7.10
2022-08-20T18:26:54.253Z,6.90
2022-08-20T18:29:34.192Z,6.70
2022-08-20T18:32:07.486Z,7.30
2022-08-20T18:34:40.439Z,7.10
2022-08-20T18:37:14.709Z,7.20
2022-08-20T18:39:49.288Z,8.50
2022-08-20T18:44:48.417Z,7.60
2022-08-20T18:47:25.635Z,8.00
2022-08-20T18:50:16.492Z,8.70
2022-08-20T18:53:08.509Z,8.70
2022-08-20T18:55:43.724Z,8.10
2022-08-20T18:58:31.104Z,8.30
2022-08-20T19:01:05.125Z,8.40
2022-08-20T19:03:36.359Z,8.30
2022-08-20T19:06:13.999Z,7.80
2022-08-20T19:08:52.734Z,7.70
2022-08-20T19:11:23.904Z,7.60
2022-08-20T19:14:15.453Z,8.10
2022-08-20T19:16:58.451Z,8.80
2022-08-20T19:19:32.234Z,8.30
2022-08-20T19:22:28.395Z,9.10
2022-08-20T19:25:00.046Z,8.10
2022-08-20T19:27:29.730Z,9.50
2022-08-20T19:30:02.708Z,8.90
2022-08-20T19:32:45.161Z,9.00
2022-08-20T19:35:17.872Z,8.30
2022-08-20T19:37:51.479Z,9.20
2022-08-20T19:40:28.730Z,9.00
2022-08-20T19:43:03.228Z,8.60
2022-08-20T19:45:41.117Z,9.80
2022-08-20T19:48:28.499Z,8.60
2022-08-20T19:51:07.038Z,9.80
2022-08-20T19:53:43.159Z,9.70
2022-08-20T19:56:21.806Z,8.60
2022-08-20T19:59:05.534Z,9.40
2022-08-20T20:01:34.921Z,9.80
2022-08-20T20:04:16.765Z,9.90
2022-08-20T20:06:49.262Z,9.80
2022-08-20T20:09:29.891Z,10.80
2022-08-20T20:12:04.092Z,9.60
2022-08-20T20:15:23.744Z,9.40
2022-08-20T20:17:54.009Z,9.10
2022-08-20T20:20:35.234Z,9.20
2022-08-20T20:23:20.678Z,10.70
2022-08-20T20:25:58.182Z,9.80
2022-08-20T20:28:41.939Z,10.30
2022-08-20T20:31:14.772Z,10.10
2022-08-20T20:33:44.454Z,11.10
2022-08-20T20:36:17.095Z,10.40
2022-08-20T20:38:58.144Z,9.60
2022-08-20T20:41:29.129Z,10.00
2022-08-20T20:44:20.605Z,9.40
2022-08-20T20:47:00.565Z,10.00
2022-08-20T20:49:35.966Z,10.30
2022-08-20T20:52:15.052Z,12.10
2022-08-20T20:54:46.288Z,11.70
2022-08-20T20:57:34.246Z,11.90
2022-08-20T21:00:14.561Z,12.80
2022-08-20T21:02:47.633Z,11.30
2022-08-20T21:05:18.041Z,11.10
2022-08-20T21:07:51.477Z,10.60
2022-08-20T21:10:23.357Z,10.70
2022-08-20T21:12:53.428Z,10.60
2022-08-20T21:15:24.458Z,9.60
2022-08-20T21:17:54.972Z,9.70
2022-08-20T21:20:23.405Z,10.70
2022-08-20T21:22:52.047Z,10.20
2022-08-20T21:25:20.741Z,10.30
2022-08-20T21:27:50.945Z,10.60
2022-08-20T21:30:21.422Z,10.90
2022-08-20T21:32:50.802Z,11.70
2022-08-20T21:35:21.186Z,11.10
2022-08-20T21:37:50.929Z,10.50
2022-08-20T21:40:21.695Z,10.60
2022-08-20T21:42:51.338Z,11.50
2022-08-20T21:45:20.279Z,11.20
2022-08-20T21:47:48.995Z,12.20
2022-08-20T21:50:20.380Z,10.80
2022-08-20T21:52:55.483Z,11.10
2022-08-20T21:55:39.789Z,10.30
2022-08-20T21:58:09.027Z,10.40
2022-08-20T22:00:53.765Z,10.60
2022-08-20T22:05:53.133Z,10.50
2022-08-20T22:08:26.062Z,10.20
2022-08-20T22:10:59.503Z,11.70
2022-08-20T22:13:31.888Z,11.30
2022-08-20T22:16:07.283Z,10.60
2022-08-20T22:18:36.533Z,12.00
2022-08-20T22:21:07.872Z,11.30
2022-08-20T22:23:40.131Z,11.50
2022-08-20T22:26:09.103Z,11.20
2022-08-20T22:28:38.790Z,11.40
2022-08-20T22:31:07.881Z,12.00
2022-08-20T22:33:37.087Z,10.70
2022-08-20T22:36:07.180Z,12.40
2022-08-20T22:38:35.557Z,12.10
2022-08-20T22:41:09.430Z,12.60
2022-08-20T22:43:43.412Z,11.90
2022-08-20T22:46:28.831Z,10.50
2022-08-20T22:48:57.847Z,11.60
2022-08-20T22:51:34.624Z,12.30
2022-08-20T22:54:05.952Z,14.90
2022-08-20T22:56:34.484Z,14.70
2022-08-20T22:59:03.720Z,13.10
2022-08-20T23:01:32.450Z,12.70
2022-08-20T23:04:12.668Z,12.90
2022-08-20T23:06:42.224Z,12.30
2022-08-20T23:09:12.810Z,13.90
2022-08-20T23:11:41.691Z,11.80
2022-08-20T23:14:10.295Z,12.80
2022-08-20T23:16:44.845Z,13.20
2022-08-20T23:19:23.005Z,12.40
2022-08-20T23:21:51.916Z,13.70
2022-08-20T23:24:21.131Z,13.90
2022-08-20T23:26:53.050Z,13.40
2022-08-20T23:29:25.834Z,14.20
2022-08-20T23:31:56.133Z,14.70
2022-08-20T23:34:26.624Z,14.60
2022-08-20T23:36:56.773Z,15.20
2022-08-20T23:39:26.408Z,14.60
2022-08-20T23:41:55.428Z,15.20
2022-08-20T23:44:27.579Z,14.60
2022-08-20T23:46:59.638Z,14.40
2022-08-20T23:49:29.647Z,15.10
2022-08-20T23:52:00.818Z,14.90
2022-08-20T23:54:33.103Z,13.60
2022-08-20T23:57:08.090Z,15.30
2022-08-20T23:59:37.140Z,13.90
